sensor_id;sensor_type;location;lat;lon;timestamp;P1;durP1;ratioP1;P2;durP2;ratioP2
15669;SDS011;18524;45.190;5.732;2023-12-04T00:02:18;25.47;;;17.57;;
15669;SDS011;18524;45.190;5.732;2023-12-04T00:07:09;27.63;;;17.90;;
15669;SDS011;18524;45.190;5.732;2023-12-04T00:11:59;24.90;;;16.93;;
15669;SDS011;18524;45.190;5.732;2023-12-04T00:16:49;26.43;;;17.03;;
15669;SDS011;18524;45.190;5.732;2023-12-04T00:21:40;27.67;;;17.40;;
15669;SDS011;18524;45.190;5.732;2023-12-04T00:26:30;25.97;;;16.47;;
15669;SDS011;18524;45.190;5.732;2023-12-04T00:31:21;28.27;;;16.73;;
15669;SDS011;18524;45.190;5.732;2023-12-04T00:36:11;26.87;;;16.23;;
15669;SDS011;18524;45.190;5.732;2023-12-04T00:41:01;24.27;;;16.00;;
15669;SDS011;18524;45.190;5.732;2023-12-04T00:45:52;25.17;;;15.57;;
15669;SDS011;18524;45.190;5.732;2023-12-04T00:50:42;24.43;;;15.47;;
15669;SDS011;18524;45.190;5.732;2023-12-04T00:55:33;21.07;;;14.33;;
15669;SDS011;18524;45.190;5.732;2023-12-04T01:00:23;19.87;;;12.77;;
15669;SDS011;18524;45.190;5.732;2023-12-04T01:05:13;21.60;;;13.40;;
15669;SDS011;18524;45.190;5.732;2023-12-04T01:10:04;22.20;;;13.90;;
15669;SDS011;18524;45.190;5.732;2023-12-04T01:14:55;21.03;;;13.60;;
15669;SDS011;18524;45.190;5.732;2023-12-04T01:19:45;18.70;;;13.67;;
15669;SDS011;18524;45.190;5.732;2023-12-04T01:24:35;18.33;;;12.90;;
15669;SDS011;18524;45.190;5.732;2023-12-04T01:29:26;17.80;;;11.70;;
15669;SDS011;18524;45.190;5.732;2023-12-04T01:34:16;18.67;;;12.20;;
15669;SDS011;18524;45.190;5.732;2023-12-04T01:39:06;19.77;;;12.57;;
15669;SDS011;18524;45.190;5.732;2023-12-04T01:43:57;14.77;;;9.97;;
15669;SDS011;18524;45.190;5.732;2023-12-04T01:48:47;17.70;;;10.93;;
15669;SDS011;18524;45.190;5.732;2023-12-04T01:53:39;16.10;;;10.80;;
15669;SDS011;18524;45.190;5.732;2023-12-04T01:58:32;16.20;;;10.53;;
15669;SDS011;18524;45.190;5.732;2023-12-04T02:03:23;14.83;;;9.83;;
15669;SDS011;18524;45.190;5.732;2023-12-04T02:08:13;14.00;;;9.07;;
15669;SDS011;18524;45.190;5.732;2023-12-04T02:13:04;15.57;;;9.53;;
15669;SDS011;18524;45.190;5.732;2023-12-04T02:17:54;13.00;;;8.57;;
15669;SDS011;18524;45.190;5.732;2023-12-04T02:22:45;13.03;;;8.93;;
15669;SDS011;18524;45.190;5.732;2023-12-04T02:27:44;13.37;;;9.17;;
15669;SDS011;18524;45.190;5.732;2023-12-04T02:32:43;14.80;;;9.17;;
15669;SDS011;18524;45.190;5.732;2023-12-04T02:37:35;13.77;;;8.57;;
15669;SDS011;18524;45.190;5.732;2023-12-04T02:42:26;12.73;;;8.93;;
15669;SDS011;18524;45.190;5.732;2023-12-04T02:47:16;12.40;;;8.93;;
15669;SDS011;18524;45.190;5.732;2023-12-04T02:52:07;13.17;;;9.10;;
15669;SDS011;18524;45.190;5.732;2023-12-04T02:56:58;13.07;;;9.33;;
15669;SDS011;18524;45.190;5.732;2023-12-04T03:01:48;15.10;;;9.60;;
15669;SDS011;18524;45.190;5.732;2023-12-04T03:06:38;12.90;;;8.90;;
15669;SDS011;18524;45.190;5.732;2023-12-04T03:11:29;12.33;;;8.60;;
15669;SDS011;18524;45.190;5.732;2023-12-04T03:16:19;12.33;;;8.67;;
15669;SDS011;18524;45.190;5.732;2023-12-04T03:21:09;13.03;;;8.13;;
15669;SDS011;18524;45.190;5.732;2023-12-04T03:26:00;14.20;;;8.70;;
15669;SDS011;18524;45.190;5.732;2023-12-04T03:30:50;14.43;;;8.70;;
15669;SDS011;18524;45.190;5.732;2023-12-04T03:35:41;12.20;;;8.47;;
15669;SDS011;18524;45.190;5.732;2023-12-04T03:40:31;11.30;;;7.70;;
15669;SDS011;18524;45.190;5.732;2023-12-04T03:45:22;9.03;;;6.73;;
15669;SDS011;18524;45.190;5.732;2023-12-04T03:50:12;8.83;;;6.73;;
15669;SDS011;18524;45.190;5.732;2023-12-04T03:55:03;10.33;;;5.80;;
15669;SDS011;18524;45.190;5.732;2023-12-04T03:59:53;9.07;;;5.77;;
15669;SDS011;18524;45.190;5.732;2023-12-04T04:04:44;7.60;;;5.33;;
15669;SDS011;18524;45.190;5.732;2023-12-04T04:09:34;8.93;;;5.20;;
15669;SDS011;18524;45.190;5.732;2023-12-04T04:14:24;7.60;;;5.03;;
15669;SDS011;18524;45.190;5.732;2023-12-04T04:19:15;6.43;;;4.63;;
15669;SDS011;18524;45.190;5.732;2023-12-04T04:24:05;7.17;;;4.70;;
15669;SDS011;18524;45.190;5.732;2023-12-04T04:28:55;7.80;;;5.30;;
15669;SDS011;18524;45.190;5.732;2023-12-04T04:33:46;7.20;;;5.17;;
15669;SDS011;18524;45.190;5.732;2023-12-04T04:38:36;9.17;;;6.30;;
15669;SDS011;18524;45.190;5.732;2023-12-04T04:43:27;11.13;;;7.07;;
15669;SDS011;18524;45.190;5.732;2023-12-04T04:48:17;10.53;;;7.30;;
15669;SDS011;18524;45.190;5.732;2023-12-04T04:53:07;11.50;;;7.13;;
15669;SDS011;18524;45.190;5.732;2023-12-04T04:57:58;9.57;;;6.23;;
15669;SDS011;18524;45.190;5.732;2023-12-04T05:02:48;7.20;;;5.23;;
15669;SDS011;18524;45.190;5.732;2023-12-04T05:07:39;7.60;;;5.63;;
15669;SDS011;18524;45.190;5.732;2023-12-04T05:12:29;8.03;;;5.47;;
15669;SDS011;18524;45.190;5.732;2023-12-04T05:17:19;8.27;;;5.87;;
15669;SDS011;18524;45.190;5.732;2023-12-04T05:22:10;7.20;;;4.80;;
15669;SDS011;18524;45.190;5.732;2023-12-04T05:27:00;7.90;;;5.30;;
15669;SDS011;18524;45.190;5.732;2023-12-04T05:31:50;8.13;;;5.03;;
15669;SDS011;18524;45.190;5.732;2023-12-04T05:36:41;6.90;;;4.70;;
15669;SDS011;18524;45.190;5.732;2023-12-04T05:41:31;8.03;;;5.07;;
15669;SDS011;18524;45.190;5.732;2023-12-04T05:46:21;7.27;;;4.87;;
15669;SDS011;18524;45.190;5.732;2023-12-04T05:51:12;7.57;;;4.40;;
15669;SDS011;18524;45.190;5.732;2023-12-04T05:56:04;7.07;;;5.07;;
15669;SDS011;18524;45.190;5.732;2023-12-04T06:00:55;6.83;;;4.83;;
15669;SDS011;18524;45.190;5.732;2023-12-04T06:05:45;6.83;;;4.87;;
15669;SDS011;18524;45.190;5.732;2023-12-04T06:10:35;7.10;;;4.20;;
15669;SDS011;18524;45.190;5.732;2023-12-04T06:15:26;5.50;;;4.00;;
15669;SDS011;18524;45.190;5.732;2023-12-04T06:20:16;7.13;;;4.27;;
15669;SDS011;18524;45.190;5.732;2023-12-04T06:25:07;6.27;;;4.40;;
15669;SDS011;18524;45.190;5.732;2023-12-04T06:29:58;5.97;;;4.17;;
15669;SDS011;18524;45.190;5.732;2023-12-04T06:34:48;5.97;;;4.10;;
15669;SDS011;18524;45.190;5.732;2023-12-04T06:39:39;8.00;;;5.00;;
15669;SDS011;18524;45.190;5.732;2023-12-04T06:44:30;6.23;;;4.13;;
15669;SDS011;18524;45.190;5.732;2023-12-04T06:49:21;7.90;;;4.10;;
15669;SDS011;18524;45.190;5.732;2023-12-04T06:54:12;6.63;;;4.67;;
15669;SDS011;18524;45.190;5.732;2023-12-04T06:59:03;6.83;;;4.47;;
15669;SDS011;18524;45.190;5.732;2023-12-04T07:03:54;8.20;;;4.57;;
15669;SDS011;18524;45.190;5.732;2023-12-04T07:08:44;6.43;;;4.00;;
15669;SDS011;18524;45.190;5.732;2023-12-04T07:13:34;5.53;;;4.00;;
15669;SDS011;18524;45.190;5.732;2023-12-04T07:18:25;5.13;;;3.20;;
15669;SDS011;18524;45.190;5.732;2023-12-04T07:23:15;15.63;;;8.90;;
15669;SDS011;18524;45.190;5.732;2023-12-04T07:28:06;7.07;;;4.80;;
15669;SDS011;18524;45.190;5.732;2023-12-04T07:32:56;6.07;;;3.40;;
15669;SDS011;18524;45.190;5.732;2023-12-04T07:37:46;5.17;;;3.10;;
15669;SDS011;18524;45.190;5.732;2023-12-04T07:42:37;5.90;;;3.50;;
15669;SDS011;18524;45.190;5.732;2023-12-04T07:47:28;5.80;;;3.37;;
15669;SDS011;18524;45.190;5.732;2023-12-04T07:52:19;7.63;;;3.70;;
15669;SDS011;18524;45.190;5.732;2023-12-04T07:57:09;4.63;;;3.13;;
15669;SDS011;18524;45.190;5.732;2023-12-04T08:01:59;4.73;;;3.10;;
15669;SDS011;18524;45.190;5.732;2023-12-04T08:06:49;5.53;;;3.50;;
15669;SDS011;18524;45.190;5.732;2023-12-04T08:11:40;5.10;;;3.40;;
15669;SDS011;18524;45.190;5.732;2023-12-04T08:16:30;4.60;;;2.83;;
15669;SDS011;18524;45.190;5.732;2023-12-04T08:21:21;7.53;;;3.93;;
15669;SDS011;18524;45.190;5.732;2023-12-04T08:26:11;7.87;;;4.37;;
15669;SDS011;18524;45.190;5.732;2023-12-04T08:31:01;5.57;;;3.47;;
15669;SDS011;18524;45.190;5.732;2023-12-04T08:35:52;6.03;;;3.50;;
15669;SDS011;18524;45.190;5.732;2023-12-04T08:40:42;4.57;;;3.57;;
15669;SDS011;18524;45.190;5.732;2023-12-04T08:45:34;6.37;;;3.70;;
15669;SDS011;18524;45.190;5.732;2023-12-04T08:50:24;6.27;;;4.00;;
15669;SDS011;18524;45.190;5.732;2023-12-04T08:55:15;6.17;;;4.40;;
15669;SDS011;18524;45.190;5.732;2023-12-04T09:00:06;8.50;;;3.93;;
15669;SDS011;18524;45.190;5.732;2023-12-04T09:04:58;8.23;;;4.70;;
15669;SDS011;18524;45.190;5.732;2023-12-04T09:09:48;8.03;;;4.47;;
15669;SDS011;18524;45.190;5.732;2023-12-04T09:14:39;5.63;;;3.70;;
15669;SDS011;18524;45.190;5.732;2023-12-04T09:19:29;6.30;;;3.90;;
15669;SDS011;18524;45.190;5.732;2023-12-04T09:24:19;8.40;;;4.30;;
15669;SDS011;18524;45.190;5.732;2023-12-04T09:29:13;6.60;;;3.83;;
15669;SDS011;18524;45.190;5.732;2023-12-04T09:34:03;7.13;;;3.90;;
15669;SDS011;18524;45.190;5.732;2023-12-04T09:38:53;5.27;;;3.40;;
15669;SDS011;18524;45.190;5.732;2023-12-04T09:43:44;4.17;;;2.83;;
15669;SDS011;18524;45.190;5.732;2023-12-04T09:48:35;3.90;;;3.07;;
15669;SDS011;18524;45.190;5.732;2023-12-04T09:53:26;5.97;;;3.30;;
15669;SDS011;18524;45.190;5.732;2023-12-04T09:58:18;3.37;;;2.23;;
15669;SDS011;18524;45.190;5.732;2023-12-04T10:03:11;5.73;;;4.20;;
15669;SDS011;18524;45.190;5.732;2023-12-04T10:08:02;4.00;;;3.10;;
15669;SDS011;18524;45.190;5.732;2023-12-04T10:12:52;2.57;;;2.30;;
15669;SDS011;18524;45.190;5.732;2023-12-04T10:17:43;3.50;;;2.37;;
15669;SDS011;18524;45.190;5.732;2023-12-04T10:22:34;5.13;;;3.03;;
15669;SDS011;18524;45.190;5.732;2023-12-04T10:27:26;3.00;;;1.80;;
15669;SDS011;18524;45.190;5.732;2023-12-04T10:32:19;2.67;;;1.60;;
15669;SDS011;18524;45.190;5.732;2023-12-04T10:37:12;3.07;;;1.60;;
15669;SDS011;18524;45.190;5.732;2023-12-04T10:42:04;2.03;;;1.10;;
15669;SDS011;18524;45.190;5.732;2023-12-04T10:46:55;2.50;;;0.87;;
15669;SDS011;18524;45.190;5.732;2023-12-04T10:51:49;3.57;;;2.20;;
15669;SDS011;18524;45.190;5.732;2023-12-04T10:56:40;2.43;;;1.50;;
15669;SDS011;18524;45.190;5.732;2023-12-04T11:01:34;3.20;;;2.40;;
15669;SDS011;18524;45.190;5.732;2023-12-04T11:06:25;3.03;;;2.43;;
15669;SDS011;18524;45.190;5.732;2023-12-04T11:11:23;2.87;;;1.90;;
15669;SDS011;18524;45.190;5.732;2023-12-04T11:16:27;5.23;;;2.30;;
15669;SDS011;18524;45.190;5.732;2023-12-04T11:21:18;5.73;;;3.13;;
15669;SDS011;18524;45.190;5.732;2023-12-04T11:26:10;5.30;;;3.50;;
15669;SDS011;18524;45.190;5.732;2023-12-04T11:31:01;9.33;;;5.10;;
15669;SDS011;18524;45.190;5.732;2023-12-04T11:35:52;5.10;;;3.43;;
15669;SDS011;18524;45.190;5.732;2023-12-04T11:40:55;6.40;;;4.50;;
15669;SDS011;18524;45.190;5.732;2023-12-04T11:45:47;6.77;;;5.30;;
15669;SDS011;18524;45.190;5.732;2023-12-04T11:50:38;8.23;;;4.97;;
15669;SDS011;18524;45.190;5.732;2023-12-04T11:55:28;5.97;;;4.43;;
15669;SDS011;18524;45.190;5.732;2023-12-04T12:05:12;5.20;;;3.73;;
15669;SDS011;18524;45.190;5.732;2023-12-04T12:10:03;5.67;;;4.03;;
15669;SDS011;18524;45.190;5.732;2023-12-04T12:14:54;7.17;;;4.47;;
15669;SDS011;18524;45.190;5.732;2023-12-04T12:19:44;5.90;;;4.30;;
15669;SDS011;18524;45.190;5.732;2023-12-04T12:24:35;6.90;;;5.47;;
15669;SDS011;18524;45.190;5.732;2023-12-04T12:29:26;10.63;;;5.97;;
15669;SDS011;18524;45.190;5.732;2023-12-04T12:34:18;7.83;;;5.87;;
15669;SDS011;18524;45.190;5.732;2023-12-04T12:39:08;8.40;;;6.20;;
15669;SDS011;18524;45.190;5.732;2023-12-04T12:44:00;8.03;;;5.67;;
15669;SDS011;18524;45.190;5.732;2023-12-04T12:48:51;7.70;;;6.00;;
15669;SDS011;18524;45.190;5.732;2023-12-04T12:53:43;9.97;;;6.47;;
15669;SDS011;18524;45.190;5.732;2023-12-04T12:58:34;9.63;;;6.30;;
15669;SDS011;18524;45.190;5.732;2023-12-04T13:03:24;8.60;;;6.40;;
15669;SDS011;18524;45.190;5.732;2023-12-04T13:08:15;8.07;;;6.27;;
15669;SDS011;18524;45.190;5.732;2023-12-04T13:13:09;12.53;;;7.63;;
15669;SDS011;18524;45.190;5.732;2023-12-04T13:18:00;11.03;;;6.67;;
15669;SDS011;18524;45.190;5.732;2023-12-04T13:22:50;7.63;;;6.07;;
15669;SDS011;18524;45.190;5.732;2023-12-04T13:27:41;8.93;;;5.73;;
15669;SDS011;18524;45.190;5.732;2023-12-04T13:32:31;7.00;;;5.80;;
15669;SDS011;18524;45.190;5.732;2023-12-04T13:37:23;7.93;;;5.77;;
15669;SDS011;18524;45.190;5.732;2023-12-04T13:42:15;7.13;;;5.13;;
15669;SDS011;18524;45.190;5.732;2023-12-04T13:47:42;7.70;;;5.53;;
15669;SDS011;18524;45.190;5.732;2023-12-04T13:52:33;7.77;;;5.67;;
15669;SDS011;18524;45.190;5.732;2023-12-04T13:57:24;6.70;;;5.70;;
15669;SDS011;18524;45.190;5.732;2023-12-04T14:02:33;8.33;;;6.50;;
15669;SDS011;18524;45.190;5.732;2023-12-04T14:07:26;11.10;;;6.97;;
15669;SDS011;18524;45.190;5.732;2023-12-04T14:12:17;9.27;;;7.17;;
15669;SDS011;18524;45.190;5.732;2023-12-04T14:17:07;9.37;;;7.60;;
15669;SDS011;18524;45.190;5.732;2023-12-04T14:21:59;9.23;;;6.97;;
15669;SDS011;18524;45.190;5.732;2023-12-04T14:26:50;9.03;;;6.97;;
15669;SDS011;18524;45.190;5.732;2023-12-04T14:31:43;8.50;;;7.23;;
15669;SDS011;18524;45.190;5.732;2023-12-04T14:36:33;11.17;;;8.00;;
15669;SDS011;18524;45.190;5.732;2023-12-04T14:41:24;14.07;;;10.33;;
15669;SDS011;18524;45.190;5.732;2023-12-04T14:46:15;8.77;;;7.70;;
15669;SDS011;18524;45.190;5.732;2023-12-04T14:51:06;12.63;;;10.17;;
15669;SDS011;18524;45.190;5.732;2023-12-04T14:55:59;7.63;;;5.63;;
15669;SDS011;18524;45.190;5.732;2023-12-04T15:01:01;11.33;;;8.10;;
15669;SDS011;18524;45.190;5.732;2023-12-04T15:06:11;10.63;;;7.63;;
15669;SDS011;18524;45.190;5.732;2023-12-04T15:11:01;14.40;;;9.67;;
15669;SDS011;18524;45.190;5.732;2023-12-04T15:16:11;9.80;;;7.43;;
15669;SDS011;18524;45.190;5.732;2023-12-04T15:21:05;10.43;;;7.63;;
15669;SDS011;18524;45.190;5.732;2023-12-04T15:25:56;11.93;;;9.30;;
15669;SDS011;18524;45.190;5.732;2023-12-04T15:30:47;9.67;;;7.33;;
15669;SDS011;18524;45.190;5.732;2023-12-04T15:35:37;7.77;;;6.00;;
15669;SDS011;18524;45.190;5.732;2023-12-04T15:40:28;4.97;;;3.73;;
15669;SDS011;18524;45.190;5.732;2023-12-04T15:45:19;2.80;;;2.47;;
15669;SDS011;18524;45.190;5.732;2023-12-04T15:50:10;3.97;;;2.57;;
15669;SDS011;18524;45.190;5.732;2023-12-04T15:55:01;3.27;;;2.70;;
15669;SDS011;18524;45.190;5.732;2023-12-04T15:59:52;4.47;;;2.93;;
15669;SDS011;18524;45.190;5.732;2023-12-04T16:04:42;5.77;;;3.53;;
15669;SDS011;18524;45.190;5.732;2023-12-04T16:09:33;4.03;;;3.63;;
15669;SDS011;18524;45.190;5.732;2023-12-04T16:14:23;5.07;;;3.63;;
15669;SDS011;18524;45.190;5.732;2023-12-04T16:19:13;7.90;;;6.17;;
15669;SDS011;18524;45.190;5.732;2023-12-04T16:24:05;10.33;;;6.77;;
15669;SDS011;18524;45.190;5.732;2023-12-04T16:28:55;9.60;;;7.87;;
15669;SDS011;18524;45.190;5.732;2023-12-04T16:33:46;11.57;;;7.60;;
15669;SDS011;18524;45.190;5.732;2023-12-04T16:38:37;9.43;;;7.33;;
15669;SDS011;18524;45.190;5.732;2023-12-04T16:43:27;10.30;;;7.70;;
15669;SDS011;18524;45.190;5.732;2023-12-04T16:48:19;12.87;;;9.10;;
15669;SDS011;18524;45.190;5.732;2023-12-04T16:53:09;12.73;;;9.60;;
15669;SDS011;18524;45.190;5.732;2023-12-04T16:58:01;13.50;;;9.90;;
15669;SDS011;18524;45.190;5.732;2023-12-04T17:02:54;13.53;;;10.13;;
15669;SDS011;18524;45.190;5.732;2023-12-04T17:07:44;15.47;;;10.20;;
15669;SDS011;18524;45.190;5.732;2023-12-04T17:12:35;12.07;;;9.47;;
15669;SDS011;18524;45.190;5.732;2023-12-04T17:17:27;10.93;;;8.23;;
15669;SDS011;18524;45.190;5.732;2023-12-04T17:22:17;10.17;;;7.17;;
15669;SDS011;18524;45.190;5.732;2023-12-04T17:27:08;11.83;;;7.90;;
15669;SDS011;18524;45.190;5.732;2023-12-04T17:31:58;11.50;;;7.80;;
15669;SDS011;18524;45.190;5.732;2023-12-04T17:36:50;10.77;;;8.53;;
15669;SDS011;18524;45.190;5.732;2023-12-04T17:41:41;11.40;;;8.13;;
15669;SDS011;18524;45.190;5.732;2023-12-04T17:46:31;11.87;;;7.73;;
15669;SDS011;18524;45.190;5.732;2023-12-04T17:51:21;9.07;;;7.47;;
15669;SDS011;18524;45.190;5.732;2023-12-04T17:56:13;11.03;;;7.73;;
15669;SDS011;18524;45.190;5.732;2023-12-04T18:01:03;11.90;;;9.73;;
15669;SDS011;18524;45.190;5.732;2023-12-04T18:05:53;10.40;;;8.50;;
15669;SDS011;18524;45.190;5.732;2023-12-04T18:10:44;12.50;;;9.63;;
15669;SDS011;18524;45.190;5.732;2023-12-04T18:15:34;14.07;;;10.17;;
15669;SDS011;18524;45.190;5.732;2023-12-04T18:20:24;12.83;;;10.53;;
15669;SDS011;18524;45.190;5.732;2023-12-04T18:25:15;13.03;;;9.90;;
15669;SDS011;18524;45.190;5.732;2023-12-04T18:30:06;13.80;;;10.90;;
15669;SDS011;18524;45.190;5.732;2023-12-04T18:34:58;14.80;;;10.73;;
15669;SDS011;18524;45.190;5.732;2023-12-04T18:39:49;13.67;;;11.57;;
15669;SDS011;18524;45.190;5.732;2023-12-04T18:44:40;13.00;;;10.63;;
15669;SDS011;18524;45.190;5.732;2023-12-04T18:49:31;13.50;;;10.97;;
15669;SDS011;18524;45.190;5.732;2023-12-04T18:54:30;14.80;;;12.23;;
15669;SDS011;18524;45.190;5.732;2023-12-04T18:59:21;15.73;;;12.53;;
15669;SDS011;18524;45.190;5.732;2023-12-04T19:04:11;19.43;;;13.03;;
15669;SDS011;18524;45.190;5.732;2023-12-04T19:09:03;15.63;;;11.80;;
15669;SDS011;18524;45.190;5.732;2023-12-04T19:13:54;14.73;;;11.70;;
15669;SDS011;18524;45.190;5.732;2023-12-04T19:18:44;15.30;;;11.83;;
15669;SDS011;18524;45.190;5.732;2023-12-04T19:23:34;17.03;;;12.20;;
15669;SDS011;18524;45.190;5.732;2023-12-04T19:28:25;14.67;;;10.87;;
15669;SDS011;18524;45.190;5.732;2023-12-04T19:33:19;14.97;;;11.80;;
15669;SDS011;18524;45.190;5.732;2023-12-04T19:38:11;16.47;;;11.83;;
15669;SDS011;18524;45.190;5.732;2023-12-04T19:43:01;15.47;;;12.23;;
15669;SDS011;18524;45.190;5.732;2023-12-04T19:47:52;15.97;;;12.07;;
15669;SDS011;18524;45.190;5.732;2023-12-04T19:52:42;16.00;;;10.60;;
15669;SDS011;18524;45.190;5.732;2023-12-04T19:57:33;13.33;;;10.23;;
15669;SDS011;18524;45.190;5.732;2023-12-04T20:02:23;11.43;;;9.40;;
15669;SDS011;18524;45.190;5.732;2023-12-04T20:07:14;15.90;;;12.37;;
15669;SDS011;18524;45.190;5.732;2023-12-04T20:12:04;13.17;;;11.10;;
15669;SDS011;18524;45.190;5.732;2023-12-04T20:16:55;16.23;;;12.30;;
15669;SDS011;18524;45.190;5.732;2023-12-04T20:21:45;14.77;;;11.93;;
15669;SDS011;18524;45.190;5.732;2023-12-04T20:26:36;17.40;;;13.50;;
15669;SDS011;18524;45.190;5.732;2023-12-04T20:31:26;15.60;;;12.27;;
15669;SDS011;18524;45.190;5.732;2023-12-04T20:36:17;13.50;;;10.93;;
15669;SDS011;18524;45.190;5.732;2023-12-04T20:41:07;14.33;;;11.77;;
15669;SDS011;18524;45.190;5.732;2023-12-04T20:45:58;14.10;;;12.17;;
15669;SDS011;18524;45.190;5.732;2023-12-04T20:50:49;15.17;;;12.40;;
15669;SDS011;18524;45.190;5.732;2023-12-04T20:55:40;16.30;;;12.93;;
15669;SDS011;18524;45.190;5.732;2023-12-04T21:00:30;17.20;;;11.87;;
15669;SDS011;18524;45.190;5.732;2023-12-04T21:05:23;13.13;;;11.07;;
15669;SDS011;18524;45.190;5.732;2023-12-04T21:10:14;15.67;;;12.03;;
15669;SDS011;18524;45.190;5.732;2023-12-04T21:15:04;16.70;;;13.40;;
15669;SDS011;18524;45.190;5.732;2023-12-04T21:19:55;16.63;;;13.67;;
15669;SDS011;18524;45.190;5.732;2023-12-04T21:24:46;16.43;;;13.27;;
15669;SDS011;18524;45.190;5.732;2023-12-04T21:29:36;16.77;;;12.97;;
15669;SDS011;18524;45.190;5.732;2023-12-04T21:34:27;17.83;;;13.60;;
15669;SDS011;18524;45.190;5.732;2023-12-04T21:39:17;17.37;;;13.87;;
15669;SDS011;18524;45.190;5.732;2023-12-04T21:44:07;18.80;;;14.93;;
15669;SDS011;18524;45.190;5.732;2023-12-04T21:48:58;20.00;;;15.50;;
15669;SDS011;18524;45.190;5.732;2023-12-04T21:53:48;17.13;;;14.20;;
15669;SDS011;18524;45.190;5.732;2023-12-04T21:58:39;16.33;;;13.70;;
15669;SDS011;18524;45.190;5.732;2023-12-04T22:03:29;16.60;;;13.10;;
15669;SDS011;18524;45.190;5.732;2023-12-04T22:08:19;17.37;;;14.60;;
15669;SDS011;18524;45.190;5.732;2023-12-04T22:13:10;19.27;;;15.37;;
15669;SDS011;18524;45.190;5.732;2023-12-04T22:18:00;16.43;;;14.13;;
15669;SDS011;18524;45.190;5.732;2023-12-04T22:22:51;16.60;;;13.80;;
15669;SDS011;18524;45.190;5.732;2023-12-04T22:27:41;17.67;;;13.30;;
15669;SDS011;18524;45.190;5.732;2023-12-04T22:32:32;15.80;;;12.87;;
15669;SDS011;18524;45.190;5.732;2023-12-04T22:37:22;15.00;;;12.60;;
15669;SDS011;18524;45.190;5.732;2023-12-04T22:42:13;17.97;;;13.43;;
15669;SDS011;18524;45.190;5.732;2023-12-04T22:47:03;16.23;;;12.73;;
15669;SDS011;18524;45.190;5.732;2023-12-04T22:51:53;18.17;;;13.67;;
15669;SDS011;18524;45.190;5.732;2023-12-04T22:56:44;15.17;;;12.47;;
15669;SDS011;18524;45.190;5.732;2023-12-04T23:01:34;16.17;;;13.27;;
15669;SDS011;18524;45.190;5.732;2023-12-04T23:06:24;17.80;;;14.63;;
15669;SDS011;18524;45.190;5.732;2023-12-04T23:11:15;19.70;;;15.20;;
15669;SDS011;18524;45.190;5.732;2023-12-04T23:16:05;17.43;;;13.43;;
15669;SDS011;18524;45.190;5.732;2023-12-04T23:20:56;16.20;;;12.97;;
15669;SDS011;18524;45.190;5.732;2023-12-04T23:25:47;16.50;;;12.97;;
15669;SDS011;18524;45.190;5.732;2023-12-04T23:30:38;15.23;;;11.80;;
15669;SDS011;18524;45.190;5.732;2023-12-04T23:35:32;13.53;;;11.63;;
15669;SDS011;18524;45.190;5.732;2023-12-04T23:40:22;13.97;;;12.03;;
15669;SDS011;18524;45.190;5.732;2023-12-04T23:45:12;14.93;;;12.40;;
15669;SDS011;18524;45.190;5.732;2023-12-04T23:50:03;16.73;;;12.77;;
15669;SDS011;18524;45.190;5.732;2023-12-04T23:54:54;16.30;;;12.93;;
15669;SDS011;18524;45.190;5.732;2023-12-04T23:59:44;17.90;;;14.70;;
